MiSS Erin — WDG4340 — position and weather

sailwx.info

Track history (hours):
 
Tides and Currents Weather Stations Pressure Air Temp Water Temp Dewpoint Dewpoint Depression Visibility Wind Speed Wind Dir Waves Ship Positions

MiSS Erin

Owner: J SERCOVICH, LLC, Belle Chasse, LA. More information available from US FCC via Universal Licensing System and Coast Guard Vessel Documentation Center.

Last reported at 2018-Jun-08 19:33 UTC. Time now 2018-Jul-22 16:36 UTC.
Position N 29°34' W 090°42'.
Warning: this ship's position is 43 days out of date.

Length 20 m; draft 2 m.

Type: Towing. MMSI: 367535540.

Date/timePositionNaut miles runAvg speedWind from/ knotsBaromVisibWave heightAir tempDewpointWater temp
2018-Jun-08 19:33N 29°34' W 090°42'0 0.1
2018-Jun-08 19:30N 29°34' W 090°42'1 2.2
2018-Jun-08 19:00N 29°33' W 090°42'0 0.1
2018-Jun-08 18:30N 29°33' W 090°42'0 0.1
2018-Jun-08 18:00N 29°33' W 090°42'0 0.1
2018-Jun-08 17:30N 29°33' W 090°42'0 0.0
2018-Jun-08 16:58N 29°33' W 090°42'1 2.4
2018-Jun-08 16:29N 29°34' W 090°42'0 0.0
2018-Jun-08 16:00N 29°34' W 090°42'0 0.0
2018-Jun-08 15:30N 29°34' W 090°42'0 0.0
2018-Jun-08 15:00N 29°34' W 090°42'0 0.0
2018-Jun-08 14:30N 29°34' W 090°42'0 0.0
2018-Jun-08 13:59N 29°34' W 090°42'0 0.0
2018-Jun-08 13:30N 29°34' W 090°42'0 0.0
2018-Jun-08 13:00N 29°34' W 090°42'0 0.0
2018-Jun-08 12:30N 29°34' W 090°42'0 0.0
2018-Jun-08 12:00N 29°34' W 090°42'0 0.0
2018-Jun-08 11:29N 29°34' W 090°42'0 0.0
2018-Jun-08 11:00N 29°34' W 090°42'0 0.0
2018-Jun-08 10:30N 29°34' W 090°42'0 0.0
2018-Jun-08 10:00N 29°34' W 090°42'0 0.0
2018-Jun-08 09:30N 29°34' W 090°42'0 0.0
2018-Jun-08 09:00N 29°34' W 090°42'0 0.0
2018-Jun-08 08:30N 29°34' W 090°42'0 0.0
2018-Jun-08 08:00N 29°34' W 090°42'0 0.0
2018-Jun-08 07:30N 29°34' W 090°42'0 0.0
2018-Jun-08 07:00N 29°34' W 090°42'0 0.0
2018-Jun-08 06:30N 29°34' W 090°42'0 0.0
2018-Jun-08 06:00N 29°34' W 090°42'0 0.0
2018-Jun-08 05:30N 29°34' W 090°42'0 0.0
2018-Jun-08 05:00N 29°34' W 090°42'0 0.0
2018-Jun-08 04:30N 29°34' W 090°42'0 0.0
2018-Jun-08 04:00N 29°34' W 090°42'0 0.0
2018-Jun-08 03:30N 29°34' W 090°42'0 0.0
2018-Jun-08 03:00N 29°34' W 090°42'0 0.0
2018-Jun-08 02:29N 29°34' W 090°42'0 0.0
2018-Jun-08 02:00N 29°34' W 090°42'0 0.0
2018-Jun-08 01:30N 29°34' W 090°42'0 0.0
2018-Jun-08 01:00N 29°34' W 090°42'0 0.0
2018-Jun-08 00:30N 29°34' W 090°42'0 0.0
2018-Jun-07 23:59N 29°34' W 090°42'0 0.0
2018-Jun-07 23:30N 29°34' W 090°42'1 1.2
2018-Jun-07 23:00N 29°34' W 090°43'0 0.1
2018-Jun-07 22:30N 29°34' W 090°43'1 1.3
2018-Jun-07 22:00N 29°35' W 090°43'0 0.0
2018-Jun-07 21:30N 29°35' W 090°43'1 1.8
2018-Jun-07 21:00N 29°34' W 090°43'3 5.5
2018-Jun-07 20:30N 29°31' W 090°42'4 7.4
2018-Jun-07 20:00N 29°28' W 090°43'1 0.3
2018-Jun-07 15:45N 29°26' W 090°43'2 6.6
2018-Jun-07 15:27N 29°28' W 090°43'3 6.7
2018-Jun-07 15:00N 29°31' W 090°42'3 5.7
2018-Jun-07 14:30N 29°34' W 090°42'  
2018-Jun-01 03:01N 29°34' W 090°42'0 0.0
2018-Jun-01 03:01N 29°34' W 090°42'0 0.0
2018-Jun-01 02:16N 29°34' W 090°42'0 0.0
2018-Jun-01 01:54N 29°34' W 090°42'0 0.2
2018-Jun-01 01:31N 29°34' W 090°42'1 2.5
2018-Jun-01 01:01N 29°35' W 090°43'0 0.0
2018-Jun-01 00:31N 29°35' W 090°43'0 0.0
2018-Jun-01 00:00N 29°35' W 090°43'0 0.0
2018-May-31 23:31N 29°35' W 090°43'0 0.0
2018-May-31 23:00N 29°35' W 090°43'0 0.0
2018-May-31 22:31N 29°35' W 090°43'2 3.5
2018-May-31 22:01N 29°34' W 090°45'3 6.5
2018-May-31 21:30N 29°32' W 090°48'2 0.3
2018-May-31 15:57N 29°32' W 090°50'3 7.4
2018-May-31 15:30N 29°32' W 090°46'3 6.4
2018-May-31 15:01N 29°34' W 090°43'1 0.0
2018-May-30 02:29N 29°34' W 090°43'3 5.6
2018-May-30 02:00N 29°36' W 090°43'3 5.5
2018-May-30 01:30N 29°36' W 090°39'3 6.4
2018-May-30 01:00N 29°35' W 090°36'3 6.7
2018-May-30 00:30N 29°34' W 090°32'  
Track history (hours):
 
Tides and Currents Weather Stations Pressure Air Temp Water Temp Dewpoint Dewpoint Depression Visibility Wind Speed Wind Dir Waves Ship Positions

MiSS Erin

Owner: J SERCOVICH, LLC, Belle Chasse, LA. More information available from US FCC via Universal Licensing System and Coast Guard Vessel Documentation Center.

Last reported at 2018-Jun-08 19:33 UTC. Time now 2018-Jul-22 16:36 UTC.
Position N 29°34' W 090°42'.
Warning: this ship's position is 43 days out of date.

Length 20 m; draft 2 m.

Type: Towing. MMSI: 367535540.

Date/timePositionNaut miles runAvg speedWind from/ knotsBaromVisibWave heightAir tempDewpointWater temp
2018-Jun-08 19:33N 29°34' W 090°42'0 0.1
2018-Jun-08 19:30N 29°34' W 090°42'1 2.2
2018-Jun-08 19:00N 29°33' W 090°42'0 0.1
2018-Jun-08 18:30N 29°33' W 090°42'0 0.1
2018-Jun-08 18:00N 29°33' W 090°42'0 0.1
2018-Jun-08 17:30N 29°33' W 090°42'0 0.0
2018-Jun-08 16:58N 29°33' W 090°42'1 2.4
2018-Jun-08 16:29N 29°34' W 090°42'0 0.0
2018-Jun-08 16:00N 29°34' W 090°42'0 0.0
2018-Jun-08 15:30N 29°34' W 090°42'0 0.0
2018-Jun-08 15:00N 29°34' W 090°42'0 0.0
2018-Jun-08 14:30N 29°34' W 090°42'0 0.0
2018-Jun-08 13:59N 29°34' W 090°42'0 0.0
2018-Jun-08 13:30N 29°34' W 090°42'0 0.0
2018-Jun-08 13:00N 29°34' W 090°42'0 0.0
2018-Jun-08 12:30N 29°34' W 090°42'0 0.0
2018-Jun-08 12:00N 29°34' W 090°42'0 0.0
2018-Jun-08 11:29N 29°34' W 090°42'0 0.0
2018-Jun-08 11:00N 29°34' W 090°42'0 0.0
2018-Jun-08 10:30N 29°34' W 090°42'0 0.0
2018-Jun-08 10:00N 29°34' W 090°42'0 0.0
2018-Jun-08 09:30N 29°34' W 090°42'0 0.0
2018-Jun-08 09:00N 29°34' W 090°42'0 0.0
2018-Jun-08 08:30N 29°34' W 090°42'0 0.0
2018-Jun-08 08:00N 29°34' W 090°42'0 0.0
2018-Jun-08 07:30N 29°34' W 090°42'0 0.0
2018-Jun-08 07:00N 29°34' W 090°42'0 0.0
2018-Jun-08 06:30N 29°34' W 090°42'0 0.0
2018-Jun-08 06:00N 29°34' W 090°42'0 0.0
2018-Jun-08 05:30N 29°34' W 090°42'0 0.0
2018-Jun-08 05:00N 29°34' W 090°42'0 0.0
2018-Jun-08 04:30N 29°34' W 090°42'0 0.0
2018-Jun-08 04:00N 29°34' W 090°42'0 0.0
2018-Jun-08 03:30N 29°34' W 090°42'0 0.0
2018-Jun-08 03:00N 29°34' W 090°42'0 0.0
2018-Jun-08 02:29N 29°34' W 090°42'0 0.0
2018-Jun-08 02:00N 29°34' W 090°42'0 0.0
2018-Jun-08 01:30N 29°34' W 090°42'0 0.0
2018-Jun-08 01:00N 29°34' W 090°42'0 0.0
2018-Jun-08 00:30N 29°34' W 090°42'0 0.0
2018-Jun-07 23:59N 29°34' W 090°42'0 0.0
2018-Jun-07 23:30N 29°34' W 090°42'1 1.2
2018-Jun-07 23:00N 29°34' W 090°43'0 0.1
2018-Jun-07 22:30N 29°34' W 090°43'1 1.3
2018-Jun-07 22:00N 29°35' W 090°43'0 0.0
2018-Jun-07 21:30N 29°35' W 090°43'1 1.8
2018-Jun-07 21:00N 29°34' W 090°43'3 5.5
2018-Jun-07 20:30N 29°31' W 090°42'4 7.4
2018-Jun-07 20:00N 29°28' W 090°43'1 0.3
2018-Jun-07 15:45N 29°26' W 090°43'2 6.6
2018-Jun-07 15:27N 29°28' W 090°43'3 6.7
2018-Jun-07 15:00N 29°31' W 090°42'3 5.7
2018-Jun-07 14:30N 29°34' W 090°42'  
2018-Jun-01 03:01N 29°34' W 090°42'0 0.0
2018-Jun-01 03:01N 29°34' W 090°42'0 0.0
2018-Jun-01 02:16N 29°34' W 090°42'0 0.0
2018-Jun-01 01:54N 29°34' W 090°42'0 0.2
2018-Jun-01 01:31N 29°34' W 090°42'1 2.5
2018-Jun-01 01:01N 29°35' W 090°43'0 0.0
2018-Jun-01 00:31N 29°35' W 090°43'0 0.0
2018-Jun-01 00:00N 29°35' W 090°43'0 0.0
2018-May-31 23:31N 29°35' W 090°43'0 0.0
2018-May-31 23:00N 29°35' W 090°43'0 0.0
2018-May-31 22:31N 29°35' W 090°43'2 3.5
2018-May-31 22:01N 29°34' W 090°45'3 6.5
2018-May-31 21:30N 29°32' W 090°48'2 0.3
2018-May-31 15:57N 29°32' W 090°50'3 7.4
2018-May-31 15:30N 29°32' W 090°46'3 6.4
2018-May-31 15:01N 29°34' W 090°43'1 0.0
2018-May-30 02:29N 29°34' W 090°43'3 5.6
2018-May-30 02:00N 29°36' W 090°43'3 5.5
2018-May-30 01:30N 29°36' W 090°39'3 6.4
2018-May-30 01:00N 29°35' W 090°36'3 6.7
2018-May-30 00:30N 29°34' W 090°32'  

Dump ship's entire track history